createdAt,value
2019-03-05T00:00:46.009Z,1.70
2019-03-05T00:01:46.023Z,1.80
2019-03-05T00:02:46.026Z,2.00
2019-03-05T00:03:46.038Z,1.90
2019-03-05T00:04:45.972Z,1.50
2019-03-05T00:05:45.955Z,2.00
2019-03-05T00:06:45.946Z,1.80
2019-03-05T00:07:45.934Z,1.80
2019-03-05T00:08:45.962Z,1.90
2019-03-05T00:09:45.917Z,2.00
2019-03-05T00:10:45.917Z,1.80
2019-03-05T00:11:45.910Z,1.80
2019-03-05T00:12:45.884Z,2.00
2019-03-05T00:13:45.870Z,1.90
2019-03-05T00:14:45.927Z,2.20
2019-03-05T00:15:45.853Z,1.90
2019-03-05T00:16:45.845Z,2.00
2019-03-05T00:17:45.822Z,2.00
2019-03-05T00:18:45.835Z,2.10
2019-03-05T00:19:45.850Z,2.00
2019-03-05T00:20:45.789Z,2.10
2019-03-05T00:21:45.812Z,2.00
2019-03-05T00:22:45.797Z,1.80
2019-03-05T00:23:45.763Z,1.90
2019-03-05T00:24:45.782Z,1.70
2019-03-05T00:25:45.784Z,1.90
2019-03-05T00:26:45.752Z,2.20
2019-03-05T00:27:45.743Z,2.00
2019-03-05T00:28:45.705Z,2.00
2019-03-05T00:29:45.722Z,2.20
2019-03-05T00:30:45.831Z,2.10
2019-03-05T00:31:45.668Z,2.20
2019-03-05T00:32:45.677Z,2.10
2019-03-05T00:33:45.671Z,2.20
2019-03-05T00:34:45.642Z,2.30
2019-03-05T00:35:45.672Z,2.10
2019-03-05T00:36:45.637Z,2.30
2019-03-05T00:37:45.619Z,2.40
2019-03-05T00:38:45.643Z,2.30
2019-03-05T00:39:45.615Z,2.10
2019-03-05T00:40:45.579Z,2.30
2019-03-05T00:41:45.574Z,2.30
2019-03-05T00:42:45.582Z,2.50
2019-03-05T00:43:45.545Z,2.30
2019-03-05T00:44:45.570Z,2.10
2019-03-05T00:45:45.526Z,2.20
2019-03-05T00:46:45.544Z,2.40
2019-03-05T00:47:45.507Z,2.60
2019-03-05T00:48:45.513Z,2.50
2019-03-05T00:49:45.475Z,2.30
2019-03-05T00:50:45.509Z,2.70
2019-03-05T00:51:54.480Z,2.80
2019-03-05T00:52:45.444Z,2.90
2019-03-05T00:53:45.490Z,2.70
2019-03-05T00:54:45.451Z,2.70
2019-03-05T00:55:45.433Z,2.80
2019-03-05T00:56:45.411Z,2.60
2019-03-05T00:57:45.415Z,3.10
2019-03-05T00:58:45.380Z,2.70
2019-03-05T00:59:45.414Z,2.60
2019-03-05T01:00:45.472Z,3.00
2019-03-05T01:01:46.640Z,2.70
2019-03-05T01:02:45.329Z,2.90
2019-03-05T01:03:45.372Z,3.00
2019-03-05T01:04:45.333Z,2.10
2019-03-05T01:05:45.296Z,2.70
2019-03-05T01:06:45.285Z,3.00
2019-03-05T01:07:45.272Z,2.60
2019-03-05T01:08:45.261Z,2.70
2019-03-05T01:09:45.297Z,2.30
2019-03-05T01:10:45.247Z,2.90
2019-03-05T01:11:45.278Z,3.10
2019-03-05T01:12:45.221Z,2.60
2019-03-05T01:13:45.209Z,2.90
2019-03-05T01:14:45.249Z,2.70
2019-03-05T01:15:45.183Z,2.70
2019-03-05T01:16:45.172Z,2.80
2019-03-05T01:17:45.168Z,3.10
2019-03-05T01:18:45.157Z,2.80
2019-03-05T01:19:45.171Z,3.30
2019-03-05T01:20:45.127Z,2.20
2019-03-05T01:21:45.116Z,2.50
2019-03-05T01:22:45.105Z,2.60
2019-03-05T01:23:45.106Z,2.90
2019-03-05T01:24:45.098Z,2.30
2019-03-05T01:25:45.132Z,2.60
2019-03-05T01:26:45.064Z,2.40
2019-03-05T01:27:45.083Z,2.10
2019-03-05T01:28:45.039Z,2.80
2019-03-05T01:29:45.028Z,2.60
2019-03-05T01:30:45.015Z,2.80
2019-03-05T01:31:45.013Z,2.40
2019-03-05T01:32:45.052Z,2.10
2019-03-05T01:33:44.983Z,2.80
2019-03-05T01:34:44.978Z,2.60
2019-03-05T01:35:44.979Z,2.70
2019-03-05T01:36:44.956Z,2.30
2019-03-05T01:37:44.979Z,2.50
2019-03-05T01:38:44.939Z,2.20
2019-03-05T01:39:44.917Z,2.00
2019-03-05T01:40:44.911Z,2.50
2019-03-05T01:41:44.896Z,2.00
2019-03-05T01:42:44.887Z,2.40
2019-03-05T01:43:44.937Z,2.30
2019-03-05T01:44:44.876Z,2.40
2019-03-05T01:45:44.858Z,2.70
2019-03-05T01:46:44.873Z,2.40
2019-03-05T01:47:44.827Z,2.20
2019-03-05T01:48:44.818Z,2.10
2019-03-05T01:49:44.868Z,1.70
2019-03-05T01:50:44.801Z,2.30
2019-03-05T01:51:44.792Z,2.00
2019-03-05T01:52:44.779Z,1.90
2019-03-05T01:53:44.791Z,1.90
2019-03-05T01:54:44.803Z,2.30
2019-03-05T01:55:44.749Z,1.80
2019-03-05T01:56:44.737Z,1.70
2019-03-05T01:57:44.730Z,2.00
2019-03-05T01:58:44.741Z,2.20
2019-03-05T01:59:44.742Z,2.10
2019-03-05T02:00:44.690Z,1.90
2019-03-05T02:01:44.677Z,1.60
2019-03-05T02:02:44.716Z,1.90
2019-03-05T02:03:44.669Z,2.00
2019-03-05T02:04:44.682Z,2.00
2019-03-05T02:05:44.634Z,2.00
2019-03-05T02:06:44.636Z,1.90
2019-03-05T02:07:44.620Z,1.60
2019-03-05T02:08:44.607Z,1.90
2019-03-05T02:09:44.618Z,2.10
2019-03-05T02:10:44.634Z,1.60
2019-03-05T02:11:44.568Z,1.80
2019-03-05T02:12:44.559Z,1.90
2019-03-05T02:13:44.561Z,1.90
2019-03-05T02:14:44.536Z,1.70
2019-03-05T02:15:44.531Z,1.90
2019-03-05T02:16:44.568Z,1.70
2019-03-05T02:17:44.513Z,1.80
2019-03-05T02:18:44.496Z,1.60
2019-03-05T02:19:44.482Z,1.80
2019-03-05T02:20:44.470Z,1.80
2019-03-05T02:21:44.462Z,2.30
2019-03-05T02:22:44.499Z,1.70
2019-03-05T02:23:44.586Z,2.00
2019-03-05T02:24:44.567Z,1.70
2019-03-05T02:25:44.441Z,1.70
2019-03-05T02:26:44.416Z,2.10
2019-03-05T02:27:44.426Z,1.50
2019-03-05T02:28:44.403Z,1.80
2019-03-05T02:29:44.376Z,1.80
2019-03-05T02:30:44.370Z,1.90
2019-03-05T02:31:44.353Z,2.00
2019-03-05T02:32:44.341Z,1.80
2019-03-05T02:33:44.376Z,2.00
2019-03-05T02:34:44.315Z,1.80
2019-03-05T02:35:44.315Z,1.40
2019-03-05T02:36:44.344Z,1.60
2019-03-05T02:37:44.283Z,1.80
2019-03-05T02:38:44.489Z,1.80
2019-03-05T02:39:44.316Z,2.00
2019-03-05T02:40:44.264Z,1.30
2019-03-05T02:41:44.320Z,1.90
2019-03-05T02:42:44.266Z,2.00
2019-03-05T02:43:44.240Z,1.70
2019-03-05T02:44:44.441Z,1.80
2019-03-05T02:45:44.204Z,1.80
2019-03-05T02:46:44.240Z,1.50
2019-03-05T02:47:44.186Z,2.00
2019-03-05T02:48:44.167Z,1.90
2019-03-05T02:49:44.191Z,1.70
2019-03-05T02:50:44.150Z,2.00
2019-03-05T02:51:44.126Z,2.10
2019-03-05T02:52:44.139Z,1.70
2019-03-05T02:53:44.116Z,2.00
2019-03-05T02:54:44.105Z,2.00
2019-03-05T02:55:44.085Z,1.90
2019-03-05T02:56:44.079Z,1.80
2019-03-05T02:57:44.087Z,1.50
2019-03-05T02:58:44.053Z,1.80
2019-03-05T02:59:44.052Z,1.70
2019-03-05T03:00:44.037Z,2.00
2019-03-05T03:01:44.064Z,1.80
2019-03-05T03:02:44.020Z,1.50
2019-03-05T03:03:44.000Z,1.80
2019-03-05T03:04:43.992Z,1.80
2019-03-05T03:05:43.976Z,1.70
2019-03-05T03:06:44.016Z,1.80
2019-03-05T03:07:43.964Z,1.70
2019-03-05T03:08:43.949Z,2.20
2019-03-05T03:09:43.934Z,2.00
2019-03-05T03:10:43.926Z,1.80
2019-03-05T03:11:43.944Z,1.60
2019-03-05T03:12:43.942Z,1.80
2019-03-05T03:13:43.907Z,1.40
2019-03-05T03:14:43.890Z,1.60
2019-03-05T03:15:43.871Z,1.90
2019-03-05T03:16:43.895Z,1.70
2019-03-05T03:17:43.882Z,1.70
2019-03-05T03:18:43.837Z,1.90
2019-03-05T03:19:43.833Z,1.80
2019-03-05T03:20:43.824Z,1.60
2019-03-05T03:21:43.815Z,1.90
2019-03-05T03:22:43.802Z,2.10
2019-03-05T03:23:43.835Z,2.10
2019-03-05T03:24:43.774Z,1.70
2019-03-05T03:25:43.773Z,1.80
2019-03-05T03:26:43.760Z,1.90
2019-03-05T03:27:43.740Z,1.80
2019-03-05T03:28:43.775Z,1.60
2019-03-05T03:29:43.721Z,1.70
2019-03-05T03:30:43.710Z,1.90
2019-03-05T03:31:43.712Z,1.60
2019-03-05T03:32:43.708Z,1.60
2019-03-05T03:33:43.731Z,1.60
2019-03-05T03:34:43.669Z,1.50
2019-03-05T03:35:43.659Z,1.80
2019-03-05T03:36:43.663Z,1.40
2019-03-05T03:37:43.650Z,1.20
2019-03-05T03:38:43.629Z,1.70
2019-03-05T03:39:43.672Z,1.70
2019-03-05T03:40:43.603Z,1.70
2019-03-05T03:41:43.597Z,1.60
2019-03-05T03:42:43.586Z,1.50
2019-03-05T03:43:43.612Z,1.60
2019-03-05T03:44:43.601Z,1.70
2019-03-05T03:45:43.544Z,1.40
2019-03-05T03:46:43.535Z,1.70
2019-03-05T03:47:43.531Z,1.40
2019-03-05T03:48:43.526Z,1.70
2019-03-05T03:49:43.571Z,1.60
2019-03-05T03:50:43.497Z,1.30
2019-03-05T03:51:43.484Z,1.60
2019-03-05T03:52:43.554Z,1.50
2019-03-05T03:53:43.462Z,1.40
2019-03-05T03:54:43.448Z,1.40
2019-03-05T03:55:43.484Z,1.70
2019-03-05T03:56:43.433Z,1.70
2019-03-05T03:57:43.422Z,1.30
2019-03-05T03:58:43.414Z,1.50
2019-03-05T03:59:43.409Z,1.20
2019-03-05T04:00:43.438Z,1.40
2019-03-05T04:01:43.383Z,1.50
2019-03-05T04:02:43.396Z,1.40
2019-03-05T04:03:43.400Z,1.70
2019-03-05T04:04:43.349Z,1.60
2019-03-05T04:05:43.380Z,1.50
2019-03-05T04:06:43.321Z,1.40
2019-03-05T04:07:43.313Z,1.70
2019-03-05T04:08:43.301Z,1.40
2019-03-05T04:09:43.320Z,1.40
2019-03-05T04:10:43.331Z,1.40
2019-03-05T04:11:43.265Z,1.60
2019-03-05T04:12:43.299Z,1.50
2019-03-05T04:13:43.250Z,1.40
2019-03-05T04:14:43.238Z,1.30
2019-03-05T04:15:43.235Z,1.50
2019-03-05T04:16:43.221Z,1.30
2019-03-05T04:17:43.201Z,1.30
2019-03-05T04:18:43.233Z,1.60
2019-03-05T04:19:43.184Z,1.70
2019-03-05T04:20:43.180Z,1.50
2019-03-05T04:21:43.162Z,1.70
2019-03-05T04:22:43.156Z,1.30
2019-03-05T04:23:43.142Z,1.30
2019-03-05T04:24:43.163Z,1.40
2019-03-05T04:25:43.114Z,1.30
2019-03-05T04:26:43.105Z,1.60
2019-03-05T04:27:43.099Z,1.40
2019-03-05T04:28:43.093Z,1.40
2019-03-05T04:29:43.077Z,1.50
2019-03-05T04:30:43.100Z,1.50
2019-03-05T04:31:43.058Z,1.30
2019-03-05T04:32:43.041Z,1.30
2019-03-05T04:33:43.057Z,1.60
2019-03-05T04:34:43.029Z,1.40
2019-03-05T04:35:43.043Z,1.40
2019-03-05T04:36:42.999Z,1.70
2019-03-05T04:37:42.984Z,1.60
2019-03-05T04:38:42.973Z,1.30
2019-03-05T04:39:42.972Z,1.60
2019-03-05T04:40:42.972Z,1.30
2019-03-05T04:41:42.984Z,1.60
2019-03-05T04:42:42.935Z,1.40
2019-03-05T04:43:42.923Z,1.40
2019-03-05T04:44:42.907Z,1.30
2019-03-05T04:45:42.913Z,1.60
2019-03-05T04:46:42.932Z,1.30
2019-03-05T04:47:42.876Z,1.40
2019-03-05T04:48:42.864Z,1.60
2019-03-05T04:49:42.859Z,1.60
2019-03-05T04:50:42.843Z,1.80
2019-03-05T04:51:42.867Z,1.60
2019-03-05T04:52:42.826Z,1.70
2019-03-05T04:53:42.814Z,1.20
2019-03-05T04:54:42.801Z,1.30
2019-03-05T04:55:42.786Z,1.70
2019-03-05T04:56:42.834Z,1.50
2019-03-05T04:57:42.760Z,1.90
2019-03-05T04:58:42.748Z,1.70
2019-03-05T04:59:42.753Z,1.80
2019-03-05T05:00:42.755Z,2.10
2019-03-05T05:01:42.717Z,2.10
2019-03-05T05:02:42.749Z,1.50
2019-03-05T05:03:42.735Z,1.60
2019-03-05T05:04:42.706Z,2.30
2019-03-05T05:05:42.688Z,1.50
2019-03-05T05:06:42.666Z,1.90
2019-03-05T05:07:42.714Z,1.70
2019-03-05T05:08:42.687Z,1.80
2019-03-05T05:09:42.673Z,1.50
2019-03-05T05:10:42.701Z,2.20
2019-03-05T05:11:42.616Z,1.80
2019-03-05T05:12:42.627Z,2.20
2019-03-05T05:13:42.594Z,1.90
2019-03-05T05:14:42.578Z,1.70
2019-03-05T05:15:42.560Z,1.60
2019-03-05T05:16:42.565Z,2.10
2019-03-05T05:17:42.593Z,2.10
2019-03-05T05:18:42.554Z,1.90
2019-03-05T05:19:42.522Z,1.70
2019-03-05T05:20:42.526Z,1.80
2019-03-05T05:21:42.498Z,2.10
2019-03-05T05:22:42.529Z,2.20
2019-03-05T05:23:42.487Z,2.10
2019-03-05T05:24:42.500Z,2.20
2019-03-05T05:25:42.463Z,1.90
2019-03-05T05:26:42.445Z,1.90
2019-03-05T05:27:42.482Z,2.50
2019-03-05T05:28:42.459Z,2.00
2019-03-05T05:29:42.411Z,2.00
2019-03-05T05:30:42.393Z,2.30
2019-03-05T05:31:42.421Z,1.90
2019-03-05T05:32:42.385Z,1.40
2019-03-05T05:33:42.372Z,1.90
2019-03-05T05:34:42.401Z,2.30
2019-03-05T05:35:42.350Z,2.30
2019-03-05T05:36:42.336Z,1.90
2019-03-05T05:37:42.329Z,2.30
2019-03-05T05:38:42.737Z,2.10
2019-03-05T05:39:42.296Z,2.60
2019-03-05T05:40:42.321Z,2.40
2019-03-05T05:41:42.342Z,2.30
2019-03-05T05:42:42.267Z,2.30
2019-03-05T05:43:42.261Z,2.20
2019-03-05T05:44:42.258Z,2.30
2019-03-05T05:45:42.250Z,2.40
2019-03-05T05:46:42.273Z,2.20
2019-03-05T05:47:42.219Z,2.20
2019-03-05T05:48:42.222Z,2.20
2019-03-05T05:49:42.199Z,2.10
2019-03-05T05:50:42.191Z,2.40
2019-03-05T05:51:44.337Z,2.10
2019-03-05T05:52:42.211Z,2.20
2019-03-05T05:53:42.154Z,2.50
2019-03-05T05:54:42.145Z,2.40
2019-03-05T05:55:42.136Z,2.50
2019-03-05T05:56:42.126Z,2.00
2019-03-05T05:57:42.122Z,2.20
2019-03-05T05:58:42.181Z,2.20
2019-03-05T05:59:42.107Z,2.20
2019-03-05T06:00:42.090Z,2.40
2019-03-05T06:01:42.155Z,2.40
2019-03-05T06:02:42.057Z,2.60
2019-03-05T06:03:42.076Z,1.90
2019-03-05T06:04:42.031Z,2.50
2019-03-05T06:05:42.020Z,2.10
2019-03-05T06:06:42.003Z,2.10
2019-03-05T06:07:42.011Z,2.60
2019-03-05T06:08:42.076Z,2.40
2019-03-05T06:09:42.021Z,2.80
2019-03-05T06:10:41.972Z,2.20
2019-03-05T06:11:41.962Z,2.40
2019-03-05T06:12:41.942Z,2.60
2019-03-05T06:13:41.983Z,2.40
2019-03-05T06:14:41.938Z,2.40
2019-03-05T06:15:41.925Z,2.20
2019-03-05T06:16:41.907Z,2.70
2019-03-05T06:17:41.906Z,2.80
2019-03-05T06:18:41.884Z,2.60
2019-03-05T06:19:41.898Z,2.80
2019-03-05T06:20:42.826Z,2.60
2019-03-05T06:21:41.865Z,2.50
2019-03-05T06:22:41.865Z,1.70
2019-03-05T06:23:41.820Z,2.80
2019-03-05T06:24:41.849Z,2.50
2019-03-05T06:25:41.805Z,2.50
2019-03-05T06:26:41.791Z,2.40
2019-03-05T06:27:41.788Z,3.10
2019-03-05T06:28:41.786Z,2.60
2019-03-05T06:29:41.764Z,2.40
2019-03-05T06:30:41.791Z,2.70
2019-03-05T06:31:41.735Z,2.40
2019-03-05T06:32:41.731Z,2.80
2019-03-05T06:33:41.778Z,2.70
2019-03-05T06:34:41.712Z,2.70
2019-03-05T06:35:41.736Z,2.50
2019-03-05T06:36:41.734Z,2.80
2019-03-05T06:37:41.673Z,2.70
2019-03-05T06:38:41.659Z,2.40
2019-03-05T06:39:41.653Z,2.70
2019-03-05T06:40:41.640Z,2.30
2019-03-05T06:41:41.671Z,2.70
2019-03-05T06:42:41.622Z,2.90
2019-03-05T06:43:41.609Z,2.90
2019-03-05T06:44:41.591Z,2.30
2019-03-05T06:45:41.629Z,3.00
2019-03-05T06:46:41.571Z,2.40
2019-03-05T06:47:41.592Z,2.80
2019-03-05T06:48:41.553Z,2.90
2019-03-05T06:49:41.553Z,2.60
2019-03-05T06:50:41.529Z,2.60
2019-03-05T06:51:41.521Z,2.90
2019-03-05T06:52:41.540Z,2.90
2019-03-05T06:53:41.516Z,2.90
2019-03-05T06:54:41.490Z,2.20
2019-03-05T06:55:41.467Z,2.60
2019-03-05T06:56:41.505Z,2.50
2019-03-05T06:57:41.461Z,2.10
2019-03-05T06:58:41.479Z,2.50
2019-03-05T06:59:41.434Z,2.20
2019-03-05T07:00:41.426Z,2.50
2019-03-05T07:01:41.410Z,2.30
2019-03-05T07:02:41.414Z,2.60
2019-03-05T07:03:41.390Z,2.40
2019-03-05T07:04:41.402Z,2.70
2019-03-05T07:05:41.363Z,2.60
2019-03-05T07:06:41.357Z,2.50
2019-03-05T07:07:41.421Z,2.70
2019-03-05T07:08:41.425Z,2.60
2019-03-05T07:09:41.327Z,2.00
2019-03-05T07:10:41.315Z,2.40
2019-03-05T07:11:41.307Z,2.30
2019-03-05T07:12:41.296Z,2.50
2019-03-05T07:13:41.306Z,2.20
2019-03-05T07:14:41.280Z,2.20
2019-03-05T07:15:41.259Z,2.20
2019-03-05T07:16:41.247Z,2.10
2019-03-05T07:17:41.256Z,2.00
2019-03-05T07:18:41.285Z,2.20
2019-03-05T07:19:41.218Z,2.40
2019-03-05T07:20:41.206Z,2.10
2019-03-05T07:21:41.208Z,2.60
2019-03-05T07:22:41.185Z,2.70
2019-03-05T07:23:43.078Z,2.40
2019-03-05T07:24:41.157Z,2.30
2019-03-05T07:25:41.155Z,2.20
2019-03-05T07:26:41.143Z,2.10
2019-03-05T07:27:41.130Z,2.30
2019-03-05T07:28:41.116Z,1.90
2019-03-05T07:29:41.206Z,2.50
2019-03-05T07:30:41.093Z,2.50
2019-03-05T07:31:41.087Z,2.30
2019-03-05T07:32:41.079Z,2.10
2019-03-05T07:33:41.062Z,2.20
2019-03-05T07:34:41.105Z,2.60
2019-03-05T07:35:41.039Z,2.00
2019-03-05T07:36:41.053Z,2.50
2019-03-05T07:37:41.024Z,2.50
2019-03-05T07:38:41.008Z,2.20
2019-03-05T07:39:41.003Z,2.60
2019-03-05T07:40:41.058Z,2.10
2019-03-05T07:41:40.987Z,2.50
2019-03-05T07:42:40.962Z,2.20
2019-03-05T07:43:40.957Z,1.70
2019-03-05T07:44:40.946Z,2.10
2019-03-05T07:45:41.000Z,2.10
2019-03-05T07:46:40.940Z,2.30
2019-03-05T07:47:40.910Z,2.40
2019-03-05T07:48:40.901Z,2.10
2019-03-05T07:49:44.036Z,2.30
2019-03-05T07:50:40.922Z,2.00
2019-03-05T07:51:40.906Z,2.50
2019-03-05T07:52:40.863Z,1.90
2019-03-05T07:53:40.849Z,2.10
2019-03-05T07:54:40.838Z,2.40
2019-03-05T07:55:40.883Z,2.70
2019-03-05T07:56:40.862Z,2.30
2019-03-05T07:57:40.904Z,2.10
2019-03-05T07:58:40.797Z,2.60
2019-03-05T07:59:40.786Z,2.40
2019-03-05T08:00:40.773Z,2.60
2019-03-05T08:01:40.831Z,2.80
2019-03-05T08:02:40.755Z,2.30
2019-03-05T08:03:40.775Z,2.70
2019-03-05T08:04:40.744Z,2.40
2019-03-05T08:05:40.726Z,2.60
2019-03-05T08:06:40.759Z,3.00
2019-03-05T08:07:40.741Z,2.80
2019-03-05T08:08:40.685Z,2.50
2019-03-05T08:09:40.682Z,2.30
2019-03-05T08:10:40.672Z,2.70
2019-03-05T08:11:40.657Z,2.80
2019-03-05T08:12:40.701Z,2.60
2019-03-05T08:13:40.630Z,2.60
2019-03-05T08:14:40.619Z,2.40
2019-03-05T08:15:40.792Z,2.30
2019-03-05T08:16:40.614Z,2.40
2019-03-05T08:17:40.643Z,2.50
2019-03-05T08:18:40.586Z,2.50
2019-03-05T08:19:40.612Z,2.00
2019-03-05T08:20:40.555Z,2.40
2019-03-05T08:21:40.586Z,2.10
2019-03-05T08:22:40.543Z,2.50
2019-03-05T08:23:40.585Z,2.00
2019-03-05T08:24:40.513Z,2.00
2019-03-05T08:25:40.567Z,2.30
2019-03-05T08:26:40.494Z,2.00
2019-03-05T08:27:40.533Z,1.90
2019-03-05T08:28:40.477Z,2.20
2019-03-05T08:29:40.456Z,2.10
2019-03-05T08:30:40.498Z,1.90
2019-03-05T08:31:40.445Z,1.90
2019-03-05T08:32:40.432Z,1.90
2019-03-05T08:33:40.467Z,2.10
2019-03-05T08:34:40.452Z,1.70
2019-03-05T08:35:40.452Z,1.90
2019-03-05T08:36:40.433Z,2.30
2019-03-05T08:37:40.368Z,1.80
2019-03-05T08:38:40.358Z,1.70
2019-03-05T08:39:40.359Z,1.80
2019-03-05T08:40:40.390Z,2.00
2019-03-05T08:41:40.332Z,2.00
2019-03-05T08:42:40.324Z,1.60
2019-03-05T08:43:40.306Z,2.20
2019-03-05T08:44:49.971Z,1.80
2019-03-05T08:45:41.330Z,1.90
2019-03-05T08:46:40.307Z,1.60
2019-03-05T08:47:40.263Z,2.00
2019-03-05T08:48:40.260Z,2.00
2019-03-05T08:49:40.241Z,1.90
2019-03-05T08:50:40.266Z,2.20
2019-03-05T08:51:40.273Z,1.80
2019-03-05T08:52:40.226Z,2.00
2019-03-05T08:53:49.280Z,2.10
2019-03-05T08:54:41.197Z,1.90
2019-03-05T08:55:40.178Z,2.20
2019-03-05T08:56:40.168Z,1.80
2019-03-05T08:57:40.224Z,1.80
2019-03-05T08:58:40.142Z,2.00
2019-03-05T08:59:40.137Z,2.00
2019-03-05T09:00:40.129Z,2.00
2019-03-05T09:01:40.179Z,1.60
2019-03-05T09:02:48.011Z,1.90
2019-03-05T09:03:41.094Z,1.80
2019-03-05T09:04:40.101Z,1.80
2019-03-05T09:05:40.072Z,2.10
2019-03-05T09:06:40.059Z,1.70
2019-03-05T09:07:40.084Z,2.20
2019-03-05T09:08:40.049Z,2.10
2019-03-05T09:09:40.024Z,1.90
2019-03-05T09:10:40.012Z,1.90
2019-03-05T09:11:40.007Z,2.00
2019-03-05T09:12:40.032Z,1.60
2019-03-05T09:13:39.993Z,1.70
2019-03-05T09:14:39.975Z,1.90
2019-03-05T09:15:39.965Z,1.50
2019-03-05T09:16:39.944Z,1.60
2019-03-05T09:17:39.962Z,1.90
2019-03-05T09:18:39.982Z,1.70
2019-03-05T09:19:39.916Z,1.80
2019-03-05T09:20:39.903Z,1.80
2019-03-05T09:21:39.909Z,1.50
2019-03-05T09:22:39.956Z,1.70
2019-03-05T09:23:39.881Z,1.70
2019-03-05T09:24:39.871Z,1.80
2019-03-05T09:25:39.860Z,1.70
2019-03-05T09:26:50.487Z,1.70
2019-03-05T09:27:40.862Z,1.70
2019-03-05T09:28:39.814Z,1.70
2019-03-05T09:29:39.806Z,1.50
2019-03-05T09:30:39.835Z,1.70
2019-03-05T09:31:39.789Z,1.90
2019-03-05T09:32:39.777Z,1.80
2019-03-05T09:33:39.793Z,1.70
2019-03-05T09:34:39.768Z,1.50
2019-03-05T09:35:39.764Z,1.70
2019-03-05T09:36:50.004Z,1.50
2019-03-05T09:37:40.815Z,1.60
2019-03-05T09:38:39.709Z,1.90
2019-03-05T09:39:39.697Z,1.60
2019-03-05T09:40:39.685Z,1.50
2019-03-05T09:41:39.675Z,1.70
2019-03-05T09:42:40.329Z,1.70
2019-03-05T09:43:39.677Z,1.70
2019-03-05T09:44:39.752Z,1.80
2019-03-05T09:45:39.648Z,1.70
2019-03-05T09:46:39.627Z,1.50
2019-03-05T09:47:39.635Z,1.60
2019-03-05T09:48:39.599Z,1.60
2019-03-05T09:49:39.591Z,1.50
2019-03-05T09:50:39.589Z,1.70
2019-03-05T09:51:39.625Z,1.80
2019-03-05T09:52:39.600Z,1.50
2019-03-05T09:53:39.543Z,1.50
2019-03-05T09:54:39.534Z,2.00
2019-03-05T09:55:39.526Z,1.80
2019-03-05T09:56:39.546Z,2.00
2019-03-05T09:57:39.536Z,1.70
2019-03-05T09:58:39.544Z,2.10
2019-03-05T09:59:39.521Z,2.10
2019-03-05T10:00:39.468Z,1.90
2019-03-05T10:01:39.501Z,1.90
2019-03-05T10:02:39.521Z,1.70
2019-03-05T10:03:39.442Z,1.90
2019-03-05T10:04:39.467Z,1.90
2019-03-05T10:05:39.524Z,2.10
2019-03-05T10:06:39.403Z,2.20
2019-03-05T10:07:39.439Z,2.10
2019-03-05T10:08:39.391Z,1.90
2019-03-05T10:09:39.378Z,2.00
2019-03-05T10:10:39.404Z,2.10
2019-03-05T10:11:39.381Z,1.80
2019-03-05T10:12:39.365Z,2.00
2019-03-05T10:13:39.392Z,1.80
2019-03-05T10:14:39.338Z,2.10
2019-03-05T10:15:39.350Z,1.90
2019-03-05T10:16:39.312Z,2.00
2019-03-05T10:17:39.289Z,1.90
2019-03-05T10:18:39.432Z,1.80
2019-03-05T10:19:39.263Z,2.20
2019-03-05T10:20:39.292Z,1.70
2019-03-05T10:21:46.136Z,2.20
2019-03-05T10:22:40.231Z,1.80
2019-03-05T10:23:39.221Z,2.40
2019-03-05T10:24:39.210Z,1.80
2019-03-05T10:25:39.234Z,2.20
2019-03-05T10:26:39.182Z,2.10
2019-03-05T10:27:39.181Z,2.70
2019-03-05T10:28:39.173Z,2.30
2019-03-05T10:29:39.157Z,2.10
2019-03-05T10:30:39.186Z,2.20
2019-03-05T10:31:39.128Z,2.30
2019-03-05T10:32:39.121Z,2.80
2019-03-05T10:33:39.103Z,2.20
2019-03-05T10:34:39.091Z,1.90
2019-03-05T10:35:39.092Z,2.00
2019-03-05T10:36:39.113Z,1.80
2019-03-05T10:37:39.066Z,1.60
2019-03-05T10:38:39.129Z,1.80
2019-03-05T10:39:39.041Z,1.70
2019-03-05T10:40:39.068Z,1.90
2019-03-05T10:41:39.053Z,2.00
2019-03-05T10:42:41.208Z,1.70
2019-03-05T10:43:38.990Z,1.70
2019-03-05T10:44:38.983Z,1.90
2019-03-05T10:45:39.003Z,1.80
2019-03-05T10:46:38.958Z,1.30
2019-03-05T10:47:38.954Z,1.80
2019-03-05T10:48:38.945Z,1.90
2019-03-05T10:49:38.933Z,1.70
2019-03-05T10:50:38.922Z,1.80
2019-03-05T10:51:38.940Z,1.70
2019-03-05T10:52:38.894Z,1.50
2019-03-05T10:53:38.896Z,1.70
2019-03-05T10:54:38.880Z,1.60
2019-03-05T10:55:38.863Z,1.90
2019-03-05T10:56:38.882Z,1.90
2019-03-05T10:57:38.842Z,1.60
2019-03-05T10:58:38.831Z,1.90
2019-03-05T10:59:38.824Z,1.50
2019-03-05T11:00:38.820Z,2.00
2019-03-05T11:01:38.836Z,1.90
2019-03-05T11:02:38.789Z,1.60
2019-03-05T11:03:38.775Z,1.40
2019-03-05T11:04:45.625Z,1.60
2019-03-05T11:05:39.761Z,1.40
2019-03-05T11:06:38.743Z,1.70
2019-03-05T11:07:39.152Z,1.60
2019-03-05T11:08:38.742Z,1.70
2019-03-05T11:09:38.715Z,1.70
2019-03-05T11:10:41.089Z,1.60
2019-03-05T11:11:38.708Z,1.60
2019-03-05T11:12:38.726Z,1.70
2019-03-05T11:13:38.746Z,1.70
2019-03-05T11:14:38.664Z,1.40
2019-03-05T11:15:38.654Z,1.70
2019-03-05T11:16:38.658Z,1.40
2019-03-05T11:17:38.632Z,1.50
2019-03-05T11:18:38.652Z,1.80
2019-03-05T11:19:38.610Z,1.70
2019-03-05T11:20:38.596Z,2.00
2019-03-05T11:21:38.596Z,1.50
2019-03-05T11:22:38.586Z,1.40
2019-03-05T11:23:38.597Z,1.90
2019-03-05T11:24:38.546Z,1.70
2019-03-05T11:25:38.537Z,1.50
2019-03-05T11:26:38.527Z,1.70
2019-03-05T11:27:38.530Z,1.60
2019-03-05T11:28:38.507Z,1.70
2019-03-05T11:29:38.521Z,1.70
2019-03-05T11:30:38.478Z,1.90
2019-03-05T11:31:38.477Z,1.60
2019-03-05T11:32:38.504Z,1.70
2019-03-05T11:33:38.505Z,1.50
2019-03-05T11:34:38.450Z,1.90
2019-03-05T11:35:39.070Z,1.50
2019-03-05T11:36:38.415Z,2.00
2019-03-05T11:37:38.412Z,1.60
2019-03-05T11:38:38.397Z,2.10
2019-03-05T11:39:38.417Z,1.60
2019-03-05T11:40:38.392Z,1.70
2019-03-05T11:41:38.364Z,1.60
2019-03-05T11:42:38.357Z,1.80
2019-03-05T11:43:38.841Z,1.80
2019-03-05T11:44:38.391Z,1.80
2019-03-05T11:45:38.331Z,1.70
2019-03-05T11:46:38.315Z,1.70
2019-03-05T11:47:38.296Z,1.80
2019-03-05T11:48:38.287Z,1.80
2019-03-05T11:49:38.310Z,1.70
2019-03-05T11:50:38.262Z,1.60
2019-03-05T11:51:38.262Z,1.80
2019-03-05T11:52:38.260Z,1.50
2019-03-05T11:53:38.239Z,1.80
2019-03-05T11:54:38.280Z,1.30
2019-03-05T11:55:38.207Z,1.40
2019-03-05T11:56:38.196Z,1.60
2019-03-05T11:57:38.204Z,1.80
2019-03-05T11:58:38.182Z,1.60
2019-03-05T11:59:38.222Z,1.70
2019-03-05T12:00:38.155Z,1.60
2019-03-05T12:01:38.152Z,1.50
2019-03-05T12:02:38.138Z,1.60
2019-03-05T12:03:38.136Z,1.70
2019-03-05T12:04:38.158Z,1.60
2019-03-05T12:05:38.126Z,1.70
2019-03-05T12:06:38.094Z,1.50
2019-03-05T12:07:38.077Z,1.80
2019-03-05T12:08:38.072Z,1.60
2019-03-05T12:09:38.094Z,1.60
2019-03-05T12:10:38.053Z,1.60
2019-03-05T12:11:38.048Z,1.50
2019-03-05T12:12:38.028Z,1.60
2019-03-05T12:13:38.011Z,1.60
2019-03-05T12:14:38.035Z,1.50
2019-03-05T12:15:38.003Z,1.60
2019-03-05T12:16:37.994Z,1.70
2019-03-05T12:17:37.978Z,1.40
2019-03-05T12:18:47.146Z,1.70
2019-03-05T12:19:37.946Z,1.70
2019-03-05T12:20:46.575Z,1.40
2019-03-05T12:21:37.938Z,1.80
2019-03-05T12:22:37.926Z,1.50
2019-03-05T12:23:37.905Z,1.70
2019-03-05T12:24:37.925Z,1.70
2019-03-05T12:25:39.813Z,1.60
2019-03-05T12:26:37.887Z,1.80
2019-03-05T12:27:37.862Z,2.00
2019-03-05T12:28:37.850Z,1.80
2019-03-05T12:29:37.890Z,1.70
2019-03-05T12:30:37.828Z,1.30
2019-03-05T12:31:37.825Z,1.50
2019-03-05T12:32:37.835Z,1.80
2019-03-05T12:33:37.813Z,1.70
2019-03-05T12:34:37.836Z,1.60
2019-03-05T12:35:37.837Z,1.90
2019-03-05T12:36:37.768Z,1.60
2019-03-05T12:37:37.767Z,1.70
2019-03-05T12:38:37.755Z,1.50
2019-03-05T12:39:37.746Z,1.60
2019-03-05T12:40:37.779Z,1.70
2019-03-05T12:41:37.712Z,1.50
2019-03-05T12:42:37.704Z,1.60
2019-03-05T12:43:37.699Z,1.70
2019-03-05T12:44:37.693Z,1.70
2019-03-05T12:45:37.716Z,1.90
2019-03-05T12:46:37.665Z,1.90
2019-03-05T12:47:37.673Z,1.60
2019-03-05T12:48:40.254Z,1.70
2019-03-05T12:49:37.629Z,1.70
2019-03-05T12:50:37.648Z,2.00
2019-03-05T12:51:37.636Z,1.70
2019-03-05T12:52:37.594Z,1.70
2019-03-05T12:53:37.582Z,1.70
2019-03-05T12:54:37.576Z,1.70
2019-03-05T12:55:37.552Z,2.10
2019-03-05T12:56:37.544Z,1.60
2019-03-05T12:57:37.579Z,1.90
2019-03-05T12:58:37.525Z,1.70
2019-03-05T12:59:37.512Z,1.70
2019-03-05T13:00:37.529Z,1.90
2019-03-05T13:01:37.498Z,1.90
2019-03-05T13:02:37.519Z,1.70
2019-03-05T13:03:37.473Z,1.50
2019-03-05T13:04:37.460Z,2.00
2019-03-05T13:05:37.451Z,2.00
2019-03-05T13:06:37.439Z,1.70
2019-03-05T13:07:37.453Z,1.80
2019-03-05T13:08:37.452Z,1.70
2019-03-05T13:09:37.403Z,2.20
2019-03-05T13:10:37.745Z,2.40
2019-03-05T13:11:37.385Z,2.20
2019-03-05T13:12:40.038Z,2.20
2019-03-05T13:13:37.547Z,3.50
2019-03-05T13:14:38.370Z,3.20
2019-03-05T13:15:38.347Z,2.30
2019-03-05T13:16:39.362Z,2.30
2019-03-05T13:17:37.335Z,1.90
2019-03-05T13:18:37.349Z,2.80